createdAt,value
2018-05-01T00:01:57.234Z,13.74
2018-05-01T00:04:24.684Z,13.80
2018-05-01T00:06:52.143Z,13.86
2018-05-01T00:09:19.612Z,13.80
2018-05-01T00:11:47.064Z,13.61
2018-05-01T00:14:14.539Z,13.70
2018-05-01T00:16:41.988Z,13.73
2018-05-01T00:19:09.465Z,13.67
2018-05-01T00:21:36.924Z,13.65
2018-05-01T00:24:04.374Z,13.79
2018-05-01T00:26:31.844Z,13.86
2018-05-01T00:28:59.394Z,13.87
2018-05-01T00:31:26.793Z,13.79
2018-05-01T00:33:54.249Z,13.81
2018-05-01T00:36:21.733Z,13.85
2018-05-01T00:38:49.195Z,13.81
2018-05-01T00:41:16.673Z,13.89
2018-05-01T00:43:44.130Z,13.75
2018-05-01T00:46:11.581Z,13.75
2018-05-01T00:48:39.052Z,13.81
2018-05-01T00:51:06.500Z,13.63
2018-05-01T00:53:33.973Z,13.59
2018-05-01T00:56:01.428Z,13.60
2018-05-01T00:58:28.925Z,13.51
2018-05-01T01:00:56.385Z,13.55
2018-05-01T01:03:23.851Z,13.44
2018-05-01T01:05:51.318Z,13.41
2018-05-01T01:08:18.784Z,13.49
2018-05-01T01:10:46.259Z,13.39
2018-05-01T01:13:13.721Z,13.45
2018-05-01T01:15:41.196Z,13.42
2018-05-01T01:18:08.659Z,13.46
2018-05-01T01:20:36.144Z,13.37
2018-05-01T01:23:03.600Z,13.38
2018-05-01T01:25:31.068Z,13.37
2018-05-01T01:27:58.520Z,13.43
2018-05-01T01:30:25.983Z,13.44
2018-05-01T01:32:53.459Z,13.34
2018-05-01T01:35:20.387Z,13.40
2018-05-01T01:37:47.351Z,13.38
2018-05-01T01:40:14.279Z,13.28
2018-05-01T01:42:41.223Z,13.26
2018-05-01T01:45:08.204Z,13.25
2018-05-01T01:47:35.124Z,13.23
2018-05-01T01:50:02.080Z,13.18
2018-05-01T01:52:29.004Z,13.18
2018-05-01T01:54:55.943Z,13.16
2018-05-01T01:57:22.861Z,13.18
2018-05-01T01:59:49.799Z,13.09
2018-05-01T02:02:16.747Z,13.07
2018-05-01T02:04:43.664Z,13.07
2018-05-01T02:07:10.607Z,13.02
2018-05-01T02:09:37.524Z,13.00
2018-05-01T02:12:04.441Z,12.90
2018-05-01T02:14:31.372Z,12.81
2018-05-01T02:16:58.291Z,12.81
2018-05-01T02:19:25.266Z,12.86
2018-05-01T02:21:52.175Z,12.90
2018-05-01T02:24:19.422Z,12.94
2018-05-01T02:26:46.360Z,12.81
2018-05-01T02:29:13.279Z,12.95
2018-05-01T02:31:40.226Z,12.96
2018-05-01T02:34:07.161Z,12.92
2018-05-01T02:36:34.092Z,12.84
2018-05-01T02:39:01.042Z,12.65
2018-05-01T02:41:27.961Z,12.62
2018-05-01T02:43:54.908Z,12.53
2018-05-01T02:46:21.840Z,12.54
2018-05-01T02:48:48.765Z,12.55
2018-05-01T02:51:15.703Z,12.48
2018-05-01T02:53:42.633Z,12.51
2018-05-01T02:56:09.573Z,12.40
2018-05-01T02:58:36.575Z,12.33
2018-05-01T03:01:03.527Z,12.52
2018-05-01T03:03:30.448Z,12.14
2018-05-01T03:05:57.420Z,12.22
2018-05-01T03:08:24.343Z,12.36
2018-05-01T03:10:51.261Z,12.41
2018-05-01T03:13:18.205Z,12.42
2018-05-01T03:15:45.117Z,12.45
2018-05-01T03:18:12.048Z,12.35
2018-05-01T03:20:38.966Z,12.26
2018-05-01T03:23:05.899Z,12.28
2018-05-01T03:25:32.815Z,12.13
2018-05-01T03:27:59.762Z,12.17
2018-05-01T03:30:26.686Z,12.33
2018-05-01T03:32:53.604Z,12.28
2018-05-01T03:35:20.543Z,12.33
2018-05-01T03:37:47.475Z,12.37
2018-05-01T03:40:14.415Z,12.67
2018-05-01T03:42:41.332Z,12.63
2018-05-01T03:45:08.278Z,12.44
2018-05-01T03:47:35.203Z,12.71
2018-05-01T03:50:02.169Z,12.49
2018-05-01T03:52:29.092Z,12.25
2018-05-01T03:54:56.020Z,12.21
2018-05-01T03:57:22.960Z,12.08
2018-05-01T03:59:49.883Z,12.13
2018-05-01T04:02:16.887Z,12.10
2018-05-01T04:04:44.656Z,12.14
2018-05-01T04:07:11.608Z,12.12
2018-05-01T04:09:38.536Z,12.12
2018-05-01T04:12:05.479Z,12.06
2018-05-01T04:14:32.389Z,12.00
2018-05-01T04:16:59.331Z,12.06
2018-05-01T04:19:26.250Z,12.08
2018-05-01T04:21:53.181Z,11.94
2018-05-01T04:24:20.120Z,11.94
2018-05-01T04:26:47.046Z,11.96
2018-05-01T04:29:13.988Z,12.06
2018-05-01T04:31:40.900Z,12.12
2018-05-01T04:34:07.833Z,12.20
2018-05-01T04:36:34.760Z,12.29
2018-05-01T04:39:01.709Z,12.47
2018-05-01T04:41:28.646Z,12.60
2018-05-01T04:43:55.551Z,12.47
2018-05-01T04:46:22.499Z,12.58
2018-05-01T04:48:49.411Z,12.71
2018-05-01T04:51:16.344Z,12.69
2018-05-01T04:53:43.274Z,12.76
2018-05-01T04:56:10.222Z,12.80
2018-05-01T04:58:37.153Z,13.02
2018-05-01T05:01:04.376Z,12.96
2018-05-01T05:03:31.295Z,13.16
2018-05-01T05:05:58.224Z,13.26
2018-05-01T05:08:25.170Z,13.36
2018-05-01T05:10:52.086Z,13.72
2018-05-01T05:13:19.019Z,13.62
2018-05-01T05:15:45.942Z,13.74
2018-05-01T05:18:13.191Z,13.86
2018-05-01T05:20:40.121Z,13.90
2018-05-01T05:23:07.068Z,14.11
2018-05-01T05:25:33.986Z,14.22
2018-05-01T05:28:00.911Z,14.37
2018-05-01T05:30:27.851Z,14.68
2018-05-01T05:32:54.784Z,15.25
2018-05-01T05:35:21.731Z,14.87
2018-05-01T05:37:48.643Z,14.86
2018-05-01T05:40:15.581Z,14.53
2018-05-01T05:42:43.094Z,14.67
2018-05-01T05:45:10.003Z,14.86
2018-05-01T05:47:36.928Z,15.21
2018-05-01T05:50:03.853Z,14.71
2018-05-01T05:52:30.788Z,14.66
2018-05-01T05:54:57.708Z,14.98
2018-05-01T05:57:24.651Z,15.01
2018-05-01T05:59:51.581Z,14.94
2018-05-01T06:02:18.544Z,14.91
2018-05-01T06:04:45.461Z,14.99
2018-05-01T06:07:12.403Z,15.15
2018-05-01T06:09:39.345Z,15.09
2018-05-01T06:12:06.270Z,15.41
2018-05-01T06:14:33.294Z,15.31
2018-05-01T06:17:00.216Z,15.26
2018-05-01T06:19:27.156Z,15.43
2018-05-01T06:21:54.167Z,15.45
2018-05-01T06:24:21.029Z,15.72
2018-05-01T06:26:47.944Z,15.60
2018-05-01T06:29:14.884Z,15.82
2018-05-01T06:31:41.811Z,15.91
2018-05-01T06:34:08.743Z,15.77
2018-05-01T06:36:35.671Z,15.81
2018-05-01T06:39:02.591Z,15.74
2018-05-01T06:41:29.625Z,15.71
2018-05-01T06:43:56.558Z,15.72
2018-05-01T06:46:23.677Z,15.97
2018-05-01T06:48:50.602Z,16.14
2018-05-01T06:51:17.537Z,16.23
2018-05-01T06:53:44.748Z,16.43
2018-05-01T06:56:11.675Z,16.14
2018-05-01T06:58:38.649Z,16.73
2018-05-01T07:01:05.571Z,16.84
2018-05-01T07:03:32.517Z,16.92
2018-05-01T07:05:59.439Z,16.83
2018-05-01T07:08:26.365Z,16.80
2018-05-01T07:10:53.299Z,16.70
2018-05-01T07:13:20.225Z,16.86
2018-05-01T07:15:47.242Z,17.22
2018-05-01T07:18:14.108Z,17.09
2018-05-01T07:20:41.039Z,17.35
2018-05-01T07:23:07.960Z,17.42
2018-05-01T07:25:34.881Z,17.37
2018-05-01T07:28:01.818Z,17.05
2018-05-01T07:30:28.741Z,17.44
2018-05-01T07:32:55.690Z,17.33
2018-05-01T07:35:22.604Z,17.37
2018-05-01T07:37:49.855Z,17.74
2018-05-01T07:40:16.775Z,17.44
2018-05-01T07:42:43.721Z,17.45
2018-05-01T07:45:10.689Z,17.76
2018-05-01T07:47:37.603Z,17.95
2018-05-01T07:50:04.540Z,17.65
2018-05-01T07:52:31.466Z,17.89
2018-05-01T07:54:58.382Z,17.97
2018-05-01T07:57:25.309Z,17.34
2018-05-01T07:59:52.228Z,17.62
2018-05-01T08:02:19.183Z,17.79
2018-05-01T08:04:46.104Z,18.10
2018-05-01T08:07:13.020Z,18.26
2018-05-01T08:09:39.951Z,17.88
2018-05-01T08:12:06.944Z,17.88
2018-05-01T08:14:33.813Z,17.98
2018-05-01T08:17:00.728Z,18.67
2018-05-01T08:19:27.653Z,19.08
2018-05-01T08:21:54.596Z,19.15
2018-05-01T08:24:21.554Z,19.67
2018-05-01T08:26:48.480Z,19.14
2018-05-01T08:29:15.400Z,19.76
2018-05-01T08:31:42.360Z,19.57
2018-05-01T08:34:09.276Z,19.85
2018-05-01T08:36:36.223Z,19.32
2018-05-01T08:39:03.139Z,20.19
2018-05-01T08:41:30.055Z,19.83
2018-05-01T08:43:56.996Z,19.03
2018-05-01T08:46:23.916Z,19.64
2018-05-01T08:48:50.848Z,20.01
2018-05-01T08:51:17.763Z,20.03
2018-05-01T08:53:44.717Z,19.21
2018-05-01T08:56:11.636Z,19.69
2018-05-01T08:58:38.555Z,20.48
2018-05-01T09:01:05.503Z,19.80
2018-05-01T09:03:32.424Z,19.92
2018-05-01T09:05:59.356Z,19.47
2018-05-01T09:08:26.271Z,19.01
2018-05-01T09:10:53.195Z,18.87
2018-05-01T09:13:20.128Z,19.86
2018-05-01T09:15:47.065Z,19.40
2018-05-01T09:18:14.045Z,19.72
2018-05-01T09:20:40.948Z,19.84
2018-05-01T09:23:07.907Z,19.88
2018-05-01T09:25:34.822Z,20.63
2018-05-01T09:28:01.765Z,20.66
2018-05-01T09:30:28.689Z,20.75
2018-05-01T09:32:55.641Z,20.81
2018-05-01T09:35:22.660Z,21.17
2018-05-01T09:37:49.500Z,20.66
2018-05-01T09:40:16.460Z,21.32
2018-05-01T09:42:43.442Z,20.75
2018-05-01T09:45:10.323Z,21.40
2018-05-01T09:47:37.350Z,20.29
2018-05-01T09:50:04.444Z,21.29
2018-05-01T09:52:31.900Z,21.70
2018-05-01T09:54:59.409Z,21.56
2018-05-01T09:57:26.896Z,22.11
2018-05-01T09:59:54.354Z,21.49
2018-05-01T10:02:21.824Z,22.16
2018-05-01T10:04:49.276Z,23.30
2018-05-01T10:07:16.765Z,23.03
2018-05-01T10:09:44.235Z,22.35
2018-05-01T10:12:11.736Z,20.88
2018-05-01T10:14:39.167Z,21.82
2018-05-01T10:17:06.629Z,22.02
2018-05-01T10:19:34.116Z,22.40
2018-05-01T10:22:01.574Z,23.00
2018-05-01T10:24:29.050Z,22.29
2018-05-01T10:26:56.506Z,22.01
2018-05-01T10:29:23.959Z,21.72
2018-05-01T10:31:51.428Z,22.05
2018-05-01T10:34:18.884Z,22.10
2018-05-01T10:36:46.360Z,22.53
2018-05-01T10:39:13.827Z,21.89
2018-05-01T10:41:41.296Z,22.42
2018-05-01T10:44:09.020Z,22.27
2018-05-01T10:46:36.423Z,22.77
2018-05-01T10:49:03.915Z,22.20
2018-05-01T10:51:31.376Z,22.08
2018-05-01T10:53:58.863Z,21.79
2018-05-01T10:56:26.324Z,21.89
2018-05-01T10:58:53.811Z,21.94
2018-05-01T11:01:21.264Z,22.03
2018-05-01T11:03:48.739Z,22.26
2018-05-01T11:06:16.257Z,22.39
2018-05-01T11:08:43.712Z,22.43
2018-05-01T11:11:11.556Z,22.60
2018-05-01T11:13:39.013Z,22.74
2018-05-01T11:16:06.488Z,22.07
2018-05-01T11:18:33.948Z,21.46
2018-05-01T11:21:01.437Z,21.92
2018-05-01T11:23:28.892Z,21.61
2018-05-01T11:25:56.375Z,22.40
2018-05-01T11:28:23.846Z,21.68
2018-05-01T11:30:51.324Z,22.74
2018-05-01T11:33:18.800Z,23.23
2018-05-01T11:35:46.254Z,23.73
2018-05-01T11:38:13.723Z,22.86
2018-05-01T11:40:41.184Z,23.11
2018-05-01T11:43:08.649Z,22.55
2018-05-01T11:45:36.129Z,22.68
2018-05-01T11:48:03.631Z,22.44
2018-05-01T11:50:31.081Z,22.65
2018-05-01T11:52:58.672Z,21.87
2018-05-01T11:55:26.168Z,23.54
2018-05-01T11:57:53.624Z,22.75
2018-05-01T12:00:21.131Z,23.51
2018-05-01T12:02:48.587Z,22.72
2018-05-01T12:05:16.061Z,23.10
2018-05-01T12:07:43.538Z,23.66
2018-05-01T12:10:10.979Z,23.12
2018-05-01T12:12:38.908Z,23.64
2018-05-01T12:15:06.360Z,24.01
2018-05-01T12:17:33.832Z,23.84
2018-05-01T12:20:01.290Z,24.25
2018-05-01T12:22:28.761Z,23.98
2018-05-01T12:24:56.224Z,23.08
2018-05-01T12:27:24.300Z,22.47
2018-05-01T12:29:51.764Z,23.55
2018-05-01T12:32:19.228Z,23.21
2018-05-01T12:34:46.699Z,23.05
2018-05-01T12:37:14.160Z,23.65
2018-05-01T12:39:41.729Z,23.41
2018-05-01T12:42:09.451Z,23.27
2018-05-01T12:44:37.214Z,22.99
2018-05-01T12:47:04.857Z,23.79
2018-05-01T12:49:32.352Z,23.71
2018-05-01T12:51:59.808Z,22.93
2018-05-01T12:54:27.319Z,22.61
2018-05-01T12:56:54.839Z,22.92
2018-05-01T12:59:22.404Z,22.05
2018-05-01T13:01:49.937Z,23.49
2018-05-01T13:04:17.408Z,23.60
2018-05-01T13:06:45.236Z,23.85
2018-05-01T13:09:13.003Z,23.61
2018-05-01T13:11:40.491Z,24.07
2018-05-01T13:14:07.945Z,23.16
2018-05-01T13:16:35.408Z,23.17
2018-05-01T13:19:02.883Z,23.57
2018-05-01T13:21:30.349Z,23.95
2018-05-01T13:23:57.845Z,23.89
2018-05-01T13:26:25.303Z,23.28
2018-05-01T13:28:52.784Z,22.82
2018-05-01T13:31:20.249Z,23.27
2018-05-01T13:33:47.738Z,24.22
2018-05-01T13:36:15.204Z,23.41
2018-05-01T13:38:42.679Z,23.28
2018-05-01T13:41:10.149Z,23.88
2018-05-01T13:43:37.603Z,23.64
2018-05-01T13:46:05.076Z,24.37
2018-05-01T13:48:32.536Z,25.15
2018-05-01T13:51:00.438Z,24.57
2018-05-01T13:53:27.916Z,25.12
2018-05-01T13:55:55.380Z,23.76
2018-05-01T13:58:22.846Z,24.67
2018-05-01T14:00:50.305Z,23.34
2018-05-01T14:03:18.803Z,24.03
2018-05-01T14:05:46.403Z,23.67
2018-05-01T14:08:13.960Z,23.90
2018-05-01T14:10:41.421Z,23.62
2018-05-01T14:13:08.952Z,22.91
2018-05-01T14:15:36.390Z,23.45
2018-05-01T14:18:03.875Z,22.94
2018-05-01T14:20:31.507Z,21.97
2018-05-01T14:22:59.210Z,22.59
2018-05-01T14:25:26.813Z,22.83
2018-05-01T14:27:54.161Z,22.68
2018-05-01T14:30:21.647Z,22.70
2018-05-01T14:32:49.642Z,22.79
2018-05-01T14:35:17.164Z,22.53
2018-05-01T14:37:44.616Z,22.52
2018-05-01T14:40:12.069Z,22.25
2018-05-01T14:42:39.548Z,22.44
2018-05-01T14:45:07.032Z,21.67
2018-05-01T14:47:34.517Z,22.06
2018-05-01T14:50:02.017Z,21.26
2018-05-01T14:52:29.496Z,21.78
2018-05-01T14:54:56.959Z,21.93
2018-05-01T14:57:24.454Z,21.68
2018-05-01T14:59:51.923Z,21.60
2018-05-01T15:02:19.400Z,21.59
2018-05-01T15:04:46.872Z,21.62
2018-05-01T15:07:14.327Z,21.46
2018-05-01T15:09:41.795Z,21.54
2018-05-01T15:12:09.263Z,21.18
2018-05-01T15:14:36.741Z,21.34
2018-05-01T15:17:04.196Z,21.16
2018-05-01T15:19:31.663Z,21.14
2018-05-01T15:21:59.149Z,21.19
2018-05-01T15:24:26.599Z,20.83
2018-05-01T15:26:54.067Z,21.34
2018-05-01T15:29:21.537Z,21.33
2018-05-01T15:31:49.009Z,21.32
2018-05-01T15:34:16.468Z,21.43
2018-05-01T15:36:43.959Z,21.06
2018-05-01T15:39:11.412Z,20.98
2018-05-01T15:41:38.873Z,20.74
2018-05-01T15:44:06.409Z,20.51
2018-05-01T15:46:33.868Z,20.44
2018-05-01T15:49:01.331Z,20.33
2018-05-01T15:51:28.786Z,20.25
2018-05-01T15:53:56.277Z,20.13
2018-05-01T15:56:23.744Z,19.95
2018-05-01T15:58:51.209Z,20.18
2018-05-01T16:01:18.903Z,20.04
2018-05-01T16:03:46.693Z,20.16
2018-05-01T16:06:14.172Z,20.16
2018-05-01T16:08:41.629Z,20.26
2018-05-01T16:11:09.115Z,20.00
2018-05-01T16:13:36.571Z,20.10
2018-05-01T16:16:04.079Z,20.23
2018-05-01T16:18:31.549Z,20.16
2018-05-01T16:20:59.003Z,20.05
2018-05-01T16:23:26.552Z,19.92
2018-05-01T16:25:54.422Z,19.87
2018-05-01T16:28:21.891Z,19.99
2018-05-01T16:30:49.346Z,19.99
2018-05-01T16:33:16.935Z,19.71
2018-05-01T16:35:44.393Z,19.70
2018-05-01T16:38:11.871Z,19.81
2018-05-01T16:40:39.331Z,19.62
2018-05-01T16:43:06.794Z,19.70
2018-05-01T16:45:34.505Z,19.44
2018-05-01T16:48:02.004Z,19.60
2018-05-01T16:50:29.503Z,19.62
2018-05-01T16:52:56.956Z,19.65
2018-05-01T16:55:24.432Z,19.70
2018-05-01T16:57:51.883Z,19.57
2018-05-01T17:00:19.508Z,19.71
2018-05-01T17:02:47.012Z,19.93
2018-05-01T17:05:14.675Z,19.91
2018-05-01T17:07:42.151Z,19.84
2018-05-01T17:10:09.991Z,20.08
2018-05-01T17:12:37.471Z,19.85
2018-05-01T17:15:04.920Z,19.79
2018-05-01T17:17:32.395Z,19.73
2018-05-01T17:19:59.840Z,19.81
2018-05-01T17:22:27.444Z,19.98
2018-05-01T17:24:55.296Z,19.88
2018-05-01T17:27:22.789Z,19.88
2018-05-01T17:29:50.657Z,20.09
2018-05-01T17:32:18.255Z,20.34
2018-05-01T17:34:46.064Z,20.50
2018-05-01T17:37:13.881Z,20.47
2018-05-01T17:39:41.344Z,20.36
2018-05-01T17:42:09.098Z,20.08
2018-05-01T17:44:37.352Z,19.83
2018-05-01T17:47:05.259Z,19.76
2018-05-01T17:49:33.081Z,19.43
2018-05-01T17:52:01.069Z,19.13
2018-05-01T17:54:28.587Z,19.05
2018-05-01T17:56:56.840Z,19.04
2018-05-01T17:59:25.237Z,18.88
2018-05-01T18:01:53.205Z,18.95
2018-05-01T18:04:20.720Z,18.77
2018-05-01T18:06:48.205Z,18.62
2018-05-01T18:09:15.660Z,18.60
2018-05-01T18:11:43.758Z,18.45
2018-05-01T18:14:11.237Z,18.39
2018-05-01T18:16:38.723Z,18.33
2018-05-01T18:19:06.252Z,18.16
2018-05-01T18:21:33.715Z,18.06
2018-05-01T18:24:01.179Z,18.05
2018-05-01T18:26:28.639Z,17.93
2018-05-01T18:28:56.129Z,17.79
2018-05-01T18:31:23.615Z,17.72
2018-05-01T18:33:51.080Z,17.59
2018-05-01T18:36:18.611Z,17.49
2018-05-01T18:38:46.105Z,17.24
2018-05-01T18:41:13.584Z,17.31
2018-05-01T18:43:41.054Z,17.26
2018-05-01T18:46:08.535Z,17.15
2018-05-01T18:48:36.050Z,17.28
2018-05-01T18:51:03.529Z,17.31
2018-05-01T18:53:31.227Z,17.23
2018-05-01T18:55:58.703Z,17.27
2018-05-01T18:58:26.155Z,17.25
2018-05-01T19:00:53.634Z,17.21
2018-05-01T19:03:21.108Z,17.01
2018-05-01T19:05:48.609Z,17.01
2018-05-01T19:08:16.064Z,16.91
2018-05-01T19:10:43.521Z,16.93
2018-05-01T19:13:11.093Z,17.03
2018-05-01T19:15:38.669Z,17.10
2018-05-01T19:18:06.100Z,17.23
2018-05-01T19:20:33.570Z,17.23
2018-05-01T19:23:01.034Z,17.31
2018-05-01T19:25:28.691Z,17.29
2018-05-01T19:27:56.947Z,17.18
2018-05-01T19:30:24.775Z,17.11
2018-05-01T19:32:52.474Z,17.07
2018-05-01T19:35:19.927Z,17.09
2018-05-01T19:37:47.408Z,16.92
2018-05-01T19:40:14.864Z,16.93
2018-05-01T19:42:42.351Z,16.90
2018-05-01T19:45:09.861Z,16.97
2018-05-01T19:47:37.425Z,17.02
2018-05-01T19:50:04.932Z,17.06
2018-05-01T19:52:32.401Z,17.07
2018-05-01T19:54:59.881Z,17.08
2018-05-01T19:57:27.340Z,17.03
2018-05-01T19:59:54.845Z,17.09
2018-05-01T20:02:22.445Z,17.09
2018-05-01T20:04:49.914Z,17.01
2018-05-01T20:07:17.428Z,16.98
2018-05-01T20:09:44.913Z,17.00
2018-05-01T20:12:12.372Z,16.97
2018-05-01T20:14:39.844Z,16.97
2018-05-01T20:17:07.367Z,17.03
2018-05-01T20:19:35.107Z,16.99
2018-05-01T20:22:03.628Z,17.10
2018-05-01T20:24:31.084Z,17.06
2018-05-01T20:26:58.553Z,17.01
2018-05-01T20:29:26.205Z,16.98
2018-05-01T20:31:53.695Z,16.97
2018-05-01T20:34:21.160Z,17.00
2018-05-01T20:36:48.716Z,16.94
2018-05-01T20:39:16.211Z,16.89
2018-05-01T20:41:43.687Z,16.86
2018-05-01T20:44:11.162Z,16.82
2018-05-01T20:46:38.833Z,16.91
2018-05-01T20:49:06.346Z,16.93
2018-05-01T20:51:33.811Z,16.91
2018-05-01T20:54:01.284Z,16.92
2018-05-01T20:56:28.744Z,16.84
2018-05-01T20:58:56.223Z,17.03
2018-05-01T21:01:23.708Z,16.97
2018-05-01T21:03:51.171Z,16.98
2018-05-01T21:06:18.667Z,16.85
2018-05-01T21:08:46.432Z,16.69
2018-05-01T21:11:13.916Z,16.59
2018-05-01T21:13:41.392Z,16.56
2018-05-01T21:16:08.852Z,16.28
2018-05-01T21:18:37.192Z,16.26
2018-05-01T21:21:04.655Z,16.20
2018-05-01T21:23:32.108Z,16.14
2018-05-01T21:25:59.577Z,16.07
2018-05-01T21:28:27.025Z,15.97
2018-05-01T21:30:54.503Z,15.87
2018-05-01T21:33:21.959Z,15.87
2018-05-01T21:35:49.423Z,15.77
2018-05-01T21:38:16.903Z,15.66
2018-05-01T21:40:44.359Z,15.63
2018-05-01T21:43:11.820Z,15.62
2018-05-01T21:45:39.292Z,15.53
2018-05-01T21:48:06.769Z,15.47
2018-05-01T21:50:34.230Z,15.43
2018-05-01T21:53:01.693Z,15.44
2018-05-01T21:55:29.176Z,15.40
2018-05-01T21:57:57.459Z,15.27
2018-05-01T22:00:24.927Z,15.20
2018-05-01T22:02:52.381Z,15.11
2018-05-01T22:05:19.835Z,15.09
2018-05-01T22:07:47.300Z,15.17
2018-05-01T22:10:14.769Z,15.43
2018-05-01T22:12:42.235Z,15.68
2018-05-01T22:15:09.960Z,15.46
2018-05-01T22:17:37.416Z,15.48
2018-05-01T22:20:04.884Z,15.71
2018-05-01T22:22:32.348Z,15.63
2018-05-01T22:24:59.850Z,15.54
2018-05-01T22:27:27.312Z,15.35
2018-05-01T22:29:55.132Z,15.27
2018-05-01T22:32:22.603Z,15.15
2018-05-01T22:34:50.048Z,15.00
2018-05-01T22:37:18.812Z,14.85
2018-05-01T22:39:46.267Z,14.79
2018-05-01T22:42:13.723Z,14.76
2018-05-01T22:44:41.192Z,14.75
2018-05-01T22:47:08.639Z,14.76
2018-05-01T22:49:36.112Z,14.71
2018-05-01T22:52:03.575Z,14.77
2018-05-01T22:54:31.065Z,14.76
2018-05-01T22:56:58.533Z,14.59
2018-05-01T22:59:25.998Z,14.51
2018-05-01T23:01:53.482Z,14.43
2018-05-01T23:04:20.944Z,14.50
2018-05-01T23:06:48.416Z,14.35
2018-05-01T23:09:15.879Z,14.46
2018-05-01T23:11:43.351Z,14.49
2018-05-01T23:14:10.809Z,14.59
2018-05-01T23:16:38.276Z,14.52
2018-05-01T23:19:05.758Z,14.26
2018-05-01T23:21:33.227Z,14.29
2018-05-01T23:24:00.719Z,14.38
2018-05-01T23:26:28.960Z,14.37
2018-05-01T23:28:56.404Z,14.36
2018-05-01T23:31:23.884Z,14.28
2018-05-01T23:33:51.345Z,14.32
2018-05-01T23:36:19.272Z,14.35
2018-05-01T23:38:46.724Z,14.36
2018-05-01T23:41:14.177Z,14.13
2018-05-01T23:43:41.659Z,14.26
2018-05-01T23:46:09.116Z,14.35
2018-05-01T23:48:36.594Z,14.22
2018-05-01T23:51:04.043Z,14.30
2018-05-01T23:53:31.916Z,14.20
2018-05-01T23:55:59.405Z,14.14
2018-05-01T23:58:26.870Z,14.17
